createdAt,value
2022-10-29T00:02:40.170Z,98027.97
2022-10-29T00:05:25.327Z,98028.19
2022-10-29T00:08:10.784Z,98022.72
2022-10-29T00:10:57.196Z,98024.34
2022-10-29T00:13:43.498Z,98027.22
2022-10-29T00:16:37.236Z,98020.91
2022-10-29T00:19:23.528Z,98026.63
2022-10-29T00:22:09.032Z,98017.44
2022-10-29T00:24:54.342Z,98019.06
2022-10-29T00:27:39.728Z,98016.66
2022-10-29T00:30:26.383Z,98023.75
2022-10-29T00:33:13.097Z,98017.88
2022-10-29T00:36:01.366Z,98028.88
2022-10-29T00:38:46.848Z,98030.53
2022-10-29T00:41:32.232Z,98026.84
2022-10-29T00:44:20.606Z,98026.44
2022-10-29T00:47:25.917Z,98028.69
2022-10-29T00:50:14.049Z,98026.88
2022-10-29T00:53:01.495Z,98031.13
2022-10-29T00:55:47.179Z,98033.19
2022-10-29T00:58:32.810Z,98034.41
2022-10-29T01:01:18.696Z,98024.41
2022-10-29T01:04:04.603Z,98029.94
2022-10-29T01:06:50.474Z,98025.44
2022-10-29T01:09:35.970Z,98028.72
2022-10-29T01:13:09.103Z,98020.97
2022-10-29T01:15:59.593Z,98021.16
2022-10-29T01:19:13.014Z,98007.13
2022-10-29T01:22:05.121Z,98009.16
2022-10-29T01:25:35.157Z,98010.59
2022-10-29T01:31:36.728Z,98020.53
2022-10-29T01:34:45.189Z,98016.22
2022-10-29T01:37:42.913Z,98015.59
2022-10-29T01:40:38.041Z,98014.38
2022-10-29T01:43:38.751Z,98011.31
2022-10-29T01:46:31.122Z,98014.94
2022-10-29T01:49:27.298Z,98012.50
2022-10-29T01:52:15.860Z,98010.28
2022-10-29T01:55:02.445Z,98003.13
2022-10-29T01:57:47.709Z,98001.31
2022-10-29T02:00:54.888Z,98005.56
2022-10-29T02:03:50.680Z,98016.16
2022-10-29T02:06:59.734Z,98016.75
2022-10-29T02:10:07.085Z,98019.38
2022-10-29T02:12:55.027Z,98017.56
2022-10-29T02:15:51.243Z,98010.81
2022-10-29T02:18:49.755Z,98012.47
2022-10-29T02:21:35.378Z,98014.09
2022-10-29T02:24:20.990Z,98014.09
2022-10-29T02:27:07.426Z,98008.19
2022-10-29T02:29:53.406Z,98009.22
2022-10-29T02:32:39.937Z,98009.41
2022-10-29T02:35:25.326Z,98017.53
2022-10-29T02:38:10.966Z,98015.69
2022-10-29T02:40:56.245Z,98013.25
2022-10-29T02:43:41.686Z,98010.41
2022-10-29T02:46:27.117Z,98013.41
2022-10-29T02:49:12.564Z,98003.88
2022-10-29T02:51:58.050Z,98003.47
2022-10-29T02:54:43.312Z,98006.75
2022-10-29T02:57:29.252Z,97999.44
2022-10-29T03:00:15.254Z,98004.53
2022-10-29T03:03:00.829Z,98002.69
2022-10-29T03:05:49.088Z,97999.44
2022-10-29T03:08:34.931Z,98005.91
2022-10-29T03:11:20.989Z,98002.69
2022-10-29T03:14:06.681Z,97994.13
2022-10-29T03:16:52.146Z,97983.53
2022-10-29T03:19:37.478Z,97985.34
2022-10-29T03:22:23.168Z,97981.91
2022-10-29T03:25:09.031Z,97981.91
2022-10-29T03:27:54.913Z,97984.34
2022-10-29T03:30:40.664Z,97982.91
2022-10-29T03:33:26.801Z,97976.78
2022-10-29T03:36:12.718Z,97972.31
2022-10-29T03:38:58.081Z,97968.44
2022-10-29T03:41:43.532Z,97965.78
2022-10-29T03:44:28.943Z,97970.88
2022-10-29T03:47:14.302Z,97964.75
2022-10-29T03:49:59.837Z,97970.47
2022-10-29T03:52:45.511Z,97964.16
2022-10-29T03:55:31.335Z,97976.16
2022-10-29T03:58:17.252Z,97985.31
2022-10-29T04:01:05.464Z,97976.16
2022-10-29T04:03:51.043Z,97979.81
2022-10-29T04:06:36.373Z,97977.16
2022-10-29T04:09:21.797Z,97971.06
2022-10-29T04:12:07.890Z,97972.09
2022-10-29T04:14:53.187Z,97973.09
2022-10-29T04:17:39.058Z,97973.28
2022-10-29T04:20:45.602Z,97974.31
2022-10-29T04:28:17.955Z,97977.91
2022-10-29T04:29:40.985Z,97977.69
2022-10-29T04:32:27.672Z,97976.03
2022-10-29T04:35:12.866Z,97978.69
2022-10-29T04:37:58.521Z,97972.22
2022-10-29T04:40:44.002Z,97967.94
2022-10-29T04:43:29.943Z,97969.16
2022-10-29T04:46:15.544Z,97964.25
2022-10-29T04:49:01.164Z,97961.19
2022-10-29T04:51:46.891Z,97962.78
2022-10-29T04:54:32.568Z,97969.88
2022-10-29T04:57:18.015Z,97966.81
2022-10-29T05:00:04.164Z,97968.19
2022-10-29T05:02:51.303Z,97970.81
2022-10-29T05:05:38.056Z,97973.47
2022-10-29T05:08:23.991Z,97980.38
2022-10-29T05:11:09.521Z,97982.00
2022-10-29T05:13:54.989Z,97982.81
2022-10-29T05:16:40.380Z,97978.56
2022-10-29T05:19:26.005Z,97972.25
2022-10-29T05:22:11.715Z,97983.63
2022-10-29T05:24:57.318Z,97986.06
2022-10-29T05:27:42.650Z,97990.56
2022-10-29T05:30:28.242Z,97988.09
2022-10-29T05:33:16.875Z,97991.75
2022-10-29T05:36:02.690Z,97995.19
2022-10-29T05:38:47.792Z,97994.41
2022-10-29T05:41:33.333Z,97991.75
2022-10-29T05:44:18.840Z,98004.53
2022-10-29T05:47:06.827Z,98006.31
2022-10-29T05:49:52.436Z,98010.41
2022-10-29T05:52:38.504Z,98013.69
2022-10-29T05:55:24.232Z,98012.47
2022-10-29T05:58:12.828Z,98019.38
2022-10-29T06:00:58.464Z,98018.19
2022-10-29T06:03:44.045Z,98016.97
2022-10-29T06:06:29.814Z,98017.41
2022-10-29T06:09:15.298Z,98024.13
2022-10-29T06:12:00.382Z,98019.03
2022-10-29T06:14:45.849Z,98023.31
2022-10-29T06:17:31.391Z,98033.25
2022-10-29T06:20:22.104Z,98027.75
2022-10-29T06:23:07.818Z,98031.03
2022-10-29T06:25:53.123Z,98036.94
2022-10-29T06:28:38.949Z,98035.09
2022-10-29T06:31:24.677Z,98034.09
2022-10-29T06:34:10.108Z,98042.03
2022-10-29T06:36:55.872Z,98050.56
2022-10-29T06:39:41.678Z,98042.25
2022-10-29T06:42:27.209Z,98047.97
2022-10-29T06:45:13.285Z,98046.56
2022-10-29T06:47:59.351Z,98050.81
2022-10-29T06:50:45.071Z,98052.47
2022-10-29T06:53:30.523Z,98052.09
2022-10-29T06:56:16.370Z,98052.13
2022-10-29T06:59:01.756Z,98053.78
2022-10-29T07:01:47.247Z,98058.69
2022-10-29T07:04:32.813Z,98060.81
2022-10-29T07:07:18.259Z,98057.59
2022-10-29T07:10:03.795Z,98064.94
2022-10-29T07:12:49.468Z,98060.13
2022-10-29T07:15:35.015Z,98063.19
2022-10-29T07:18:20.493Z,98061.00
2022-10-29T07:21:05.997Z,98062.22
2022-10-29T07:23:51.648Z,98057.41
2022-10-29T07:26:37.265Z,98059.22
2022-10-29T07:29:22.325Z,98057.41
2022-10-29T07:32:07.995Z,98064.53
2022-10-29T07:34:53.307Z,98062.28
2022-10-29T07:37:38.760Z,98059.63
2022-10-29T07:40:24.268Z,98057.38
2022-10-29T07:43:09.661Z,98065.69
2022-10-29T07:45:54.892Z,98064.81
2022-10-29T07:48:40.456Z,98061.28
2022-10-29T07:51:26.104Z,98063.03
2022-10-29T07:54:14.716Z,98061.09
2022-10-29T07:57:00.292Z,98061.19
2022-10-29T07:59:47.110Z,98064.94
2022-10-29T08:02:32.413Z,98067.50
2022-10-29T08:05:17.896Z,98069.03
2022-10-29T08:08:03.479Z,98072.00
2022-10-29T08:10:48.899Z,98070.25
2022-10-29T08:13:34.684Z,98074.88
2022-10-29T08:16:19.819Z,98076.78
2022-10-29T08:19:05.349Z,98065.66
2022-10-29T08:21:50.944Z,98067.78
2022-10-29T08:24:36.285Z,98063.59
2022-10-29T08:27:21.949Z,98070.03
2022-10-29T08:30:09.708Z,98068.09
2022-10-29T08:32:55.768Z,98079.03
2022-10-29T08:35:41.582Z,98078.16
2022-10-29T08:38:27.100Z,98078.28
2022-10-29T08:41:27.173Z,98070.44
2022-10-29T08:44:15.548Z,98074.03
2022-10-29T08:47:16.778Z,98082.16
2022-10-29T08:50:27.808Z,98073.94
2022-10-29T08:53:31.313Z,98077.19
2022-10-29T08:56:37.014Z,98064.50
2022-10-29T08:59:29.843Z,98066.13
2022-10-29T09:02:17.755Z,98063.81
2022-10-29T09:05:02.977Z,98055.13
2022-10-29T09:08:23.949Z,98054.38
2022-10-29T09:11:40.331Z,98050.59
2022-10-29T09:14:41.115Z,98043.19
2022-10-29T09:18:17.011Z,98050.28
2022-10-29T09:21:29.723Z,98052.22
2022-10-29T09:24:17.693Z,98051.00
2022-10-29T09:27:23.885Z,98042.25
2022-10-29T09:30:22.362Z,98043.28
2022-10-29T09:33:19.174Z,98041.47
2022-10-29T09:36:13.232Z,98040.41
2022-10-29T09:39:03.398Z,98046.50
2022-10-29T09:41:53.219Z,98044.59
2022-10-29T09:44:47.750Z,98034.91
2022-10-29T09:48:00.505Z,98029.16
2022-10-29T09:51:21.993Z,98027.25
2022-10-29T09:54:07.733Z,98032.75
2022-10-29T09:56:54.859Z,98032.38
2022-10-29T09:59:48.422Z,98037.84
2022-10-29T10:02:37.751Z,98045.22
2022-10-29T10:05:34.929Z,98040.28
2022-10-29T10:08:20.371Z,98026.81
2022-10-29T10:11:19.625Z,98029.88
2022-10-29T10:14:17.432Z,98027.56
2022-10-29T10:17:03.219Z,98018.34
2022-10-29T10:19:48.947Z,98010.13
2022-10-29T10:22:46.181Z,98002.72
2022-10-29T10:25:39.512Z,98002.03
2022-10-29T10:28:30.877Z,98001.69
2022-10-29T10:31:16.874Z,98008.50
2022-10-29T10:34:13.775Z,98004.13
2022-10-29T10:37:05.704Z,98010.44
2022-10-29T10:40:03.403Z,98002.28
2022-10-29T10:42:48.754Z,98013.66
2022-10-29T10:45:39.310Z,98009.72
2022-10-29T10:48:33.427Z,98008.53
2022-10-29T10:51:30.619Z,98000.53
2022-10-29T10:54:38.420Z,97997.38
2022-10-29T10:57:29.172Z,97982.94
2022-10-29T11:00:20.418Z,97992.63
2022-10-29T11:03:08.843Z,97989.97
2022-10-29T11:05:59.473Z,97996.16
2022-10-29T11:09:00.617Z,97995.06
2022-10-29T11:11:58.663Z,97982.47
2022-10-29T11:14:49.856Z,97975.78
2022-10-29T11:17:54.530Z,97972.03
2022-10-29T11:20:45.309Z,97972.84
2022-10-29T11:23:46.144Z,97961.09
2022-10-29T11:26:59.866Z,97964.31
2022-10-29T11:29:54.956Z,97959.78
2022-10-29T11:33:12.574Z,97960.03
2022-10-29T11:36:11.934Z,97958.75
2022-10-29T11:39:03.527Z,97953.66
2022-10-29T11:42:00.520Z,97961.44
2022-10-29T11:44:46.399Z,97947.47
2022-10-29T11:47:58.458Z,97952.88
2022-10-29T11:51:26.073Z,97946.19
2022-10-29T11:54:26.371Z,97950.50
2022-10-29T11:57:23.898Z,97947.81
2022-10-29T12:00:21.264Z,97938.72
2022-10-29T12:03:28.833Z,97935.25
2022-10-29T12:06:41.241Z,97937.16
2022-10-29T12:09:40.672Z,97941.44
2022-10-29T12:12:37.078Z,97936.63
2022-10-29T12:15:28.609Z,97929.38
2022-10-29T12:18:47.062Z,97932.84
2022-10-29T12:21:38.194Z,97929.09
2022-10-29T12:24:48.093Z,97919.41
2022-10-29T12:27:48.660Z,97918.63
2022-10-29T12:30:59.105Z,97921.03
2022-10-29T12:34:01.647Z,97917.81
2022-10-29T12:37:17.687Z,97918.09
2022-10-29T12:40:16.099Z,97911.09
2022-10-29T12:43:06.921Z,97906.00
2022-10-29T12:46:20.107Z,97904.38
2022-10-29T12:49:43.270Z,97906.25
2022-10-29T12:52:40.711Z,97903.81
2022-10-29T12:55:26.459Z,97905.72
2022-10-29T12:58:43.549Z,97905.16
2022-10-29T13:02:10.005Z,97892.25
2022-10-29T13:04:34.625Z,97895.72
2022-10-29T13:10:23.760Z,97884.44
2022-10-29T13:13:12.191Z,97877.44
2022-10-29T13:16:01.273Z,97880.97
2022-10-29T13:19:07.432Z,97884.75
2022-10-29T13:22:01.476Z,97879.63
2022-10-29T13:25:25.000Z,97869.16
2022-10-29T13:28:10.200Z,97863.47
2022-10-29T13:31:01.760Z,97861.06
2022-10-29T13:33:46.973Z,97864.00
2022-10-29T13:36:37.479Z,97857.84
2022-10-29T13:39:23.145Z,97854.09
2022-10-29T13:42:13.055Z,97850.56
2022-10-29T13:44:58.718Z,97846.81
2022-10-29T13:47:45.849Z,97841.97
2022-10-29T13:50:33.405Z,97841.97
2022-10-29T13:53:28.216Z,97852.13
2022-10-29T13:56:20.265Z,97856.38
2022-10-29T13:59:15.335Z,97854.19
2022-10-29T14:02:32.151Z,97849.91
2022-10-29T14:05:20.436Z,97845.56
2022-10-29T14:08:11.825Z,97854.19
2022-10-29T14:10:59.643Z,97844.19
2022-10-29T14:13:48.084Z,97850.38
2022-10-29T14:16:33.776Z,97846.06
2022-10-29T14:19:22.391Z,97842.31
2022-10-29T14:22:35.738Z,97840.69
2022-10-29T14:25:34.182Z,97845.00
2022-10-29T14:28:24.044Z,97842.84
2022-10-29T14:31:15.979Z,97838.53
2022-10-29T14:34:01.580Z,97835.06
2022-10-29T14:36:48.678Z,97833.44
2022-10-29T14:39:58.057Z,97832.66
2022-10-29T14:42:46.173Z,97837.22
2022-10-29T14:45:32.555Z,97834.81
2022-10-29T14:48:18.966Z,97838.06
2022-10-29T14:51:04.500Z,97832.19
2022-10-29T14:53:58.452Z,97832.19
2022-10-29T14:56:43.985Z,97829.47
2022-10-29T14:59:31.505Z,97824.66
2022-10-29T15:02:37.028Z,97832.22
2022-10-29T15:05:29.407Z,97829.56
2022-10-29T15:08:19.221Z,97824.19
2022-10-29T15:11:04.884Z,97826.91
2022-10-29T15:13:50.549Z,97827.44
2022-10-29T15:16:38.371Z,97826.41
2022-10-29T15:19:27.235Z,97824.03
2022-10-29T15:22:21.192Z,97827.00
2022-10-29T15:25:13.121Z,97827.56
2022-10-29T15:27:59.722Z,97822.72
2022-10-29T15:30:45.574Z,97821.13
2022-10-29T15:33:32.224Z,97824.34
2022-10-29T15:36:17.945Z,97822.47
2022-10-29T15:39:26.942Z,97830.22
2022-10-29T15:42:21.615Z,97834.22
2022-10-29T15:48:09.757Z,97825.06
2022-10-29T15:50:57.639Z,97829.88
2022-10-29T15:53:43.395Z,97831.47
2022-10-29T15:56:31.723Z,97829.25
2022-10-29T15:59:22.707Z,97833.25
2022-10-29T16:02:17.716Z,97829.50
2022-10-29T16:05:03.745Z,97828.66
2022-10-29T16:07:49.393Z,97839.28
2022-10-29T16:10:35.993Z,97834.97
2022-10-29T16:13:22.662Z,97831.19
2022-10-29T16:16:17.436Z,97830.88
2022-10-29T16:19:02.734Z,97824.91
2022-10-29T16:21:48.648Z,97821.09
2022-10-29T16:24:35.073Z,97827.75
2022-10-29T16:27:20.553Z,97831.19
2022-10-29T16:30:06.974Z,97833.00
2022-10-29T16:32:52.797Z,97837.53
2022-10-29T16:35:38.514Z,97832.63
2022-10-29T16:38:23.848Z,97835.22
2022-10-29T16:41:14.568Z,97835.97
2022-10-29T16:44:00.539Z,97839.31
2022-10-29T16:46:46.012Z,97831.22
2022-10-29T16:49:31.346Z,97841.31
2022-10-29T16:52:21.100Z,97839.13
2022-10-29T16:55:08.841Z,97835.59
2022-10-29T16:57:54.322Z,97840.25
2022-10-29T17:00:39.928Z,97831.63
2022-10-29T17:03:25.129Z,97838.47
2022-10-29T17:06:11.038Z,97838.19
2022-10-29T17:08:56.626Z,97838.66
2022-10-29T17:11:42.072Z,97842.09
2022-10-29T17:14:27.704Z,97842.28
2022-10-29T17:17:13.179Z,97839.47
2022-10-29T17:19:59.066Z,97842.59
2022-10-29T17:22:44.738Z,97848.59
2022-10-29T17:25:29.782Z,97848.78
2022-10-29T17:28:15.171Z,97852.66
2022-10-29T17:31:00.569Z,97858.13
2022-10-29T17:33:45.980Z,97859.13
2022-10-29T17:36:31.402Z,97857.34
2022-10-29T17:39:16.778Z,97862.56
2022-10-29T17:42:02.408Z,97868.88
2022-10-29T17:44:47.907Z,97861.25
2022-10-29T17:47:33.367Z,97862.69
2022-10-29T17:50:18.956Z,97857.28
2022-10-29T17:53:04.725Z,97866.00
2022-10-29T17:55:50.410Z,97866.72
2022-10-29T17:58:39.542Z,97873.84
2022-10-29T18:01:25.284Z,97871.31
2022-10-29T18:04:11.118Z,97870.41
2022-10-29T18:06:56.735Z,97863.13
2022-10-29T18:09:42.154Z,97874.03
2022-10-29T18:12:27.718Z,97870.72
2022-10-29T18:15:13.469Z,97876.16
2022-10-29T18:18:00.785Z,97872.69
2022-10-29T18:20:46.372Z,97878.75
2022-10-29T18:23:31.780Z,97867.97
2022-10-29T18:26:30.686Z,97871.75
2022-10-29T18:29:16.594Z,97868.94
2022-10-29T18:32:02.508Z,97873.63
2022-10-29T18:34:47.843Z,97869.78
2022-10-29T18:37:33.235Z,97870.28
2022-10-29T18:40:19.067Z,97866.69
2022-10-29T18:43:04.497Z,97870.03
2022-10-29T18:45:59.913Z,97874.22
2022-10-29T18:48:47.809Z,97875.97
2022-10-29T18:51:33.394Z,97879.19
2022-10-29T18:54:19.860Z,97875.50
2022-10-29T18:57:05.598Z,97876.56
2022-10-29T18:59:51.107Z,97876.88
2022-10-29T19:02:36.532Z,97869.59
2022-10-29T19:05:22.543Z,97875.63
2022-10-29T19:08:09.598Z,97877.56
2022-10-29T19:10:55.140Z,97878.69
2022-10-29T19:13:41.148Z,97877.78
2022-10-29T19:16:27.461Z,97872.50
2022-10-29T19:19:15.201Z,97877.47
2022-10-29T19:22:02.636Z,97875.63
2022-10-29T19:24:48.022Z,97873.22
2022-10-29T19:27:33.385Z,97874.69
2022-10-29T19:30:18.939Z,97879.66
2022-10-29T19:33:07.998Z,97881.59
2022-10-29T19:35:54.526Z,97880.78
2022-10-29T19:38:40.399Z,97880.19
2022-10-29T19:41:26.984Z,97887.13
2022-10-29T19:44:12.785Z,97882.84
2022-10-29T19:46:58.347Z,97881.22
2022-10-29T19:49:43.862Z,97885.50
2022-10-29T19:52:29.455Z,97881.47
2022-10-29T19:55:16.329Z,97883.41
2022-10-29T19:58:01.705Z,97889.38
2022-10-29T20:00:47.946Z,97887.63
2022-10-29T20:03:33.399Z,97905.06
2022-10-29T20:06:18.450Z,97900.41
2022-10-29T20:09:03.939Z,97903.53
2022-10-29T20:11:50.338Z,97902.94
2022-10-29T20:14:36.051Z,97900.72
2022-10-29T20:17:21.619Z,97886.25
2022-10-29T20:20:09.631Z,97885.53
2022-10-29T20:23:00.104Z,97894.84
2022-10-29T20:25:46.422Z,97896.53
2022-10-29T20:28:31.802Z,97885.78
2022-10-29T20:31:17.259Z,97884.44
2022-10-29T20:34:02.663Z,97886.81
2022-10-29T20:36:48.351Z,97886.44
2022-10-29T20:39:34.247Z,97886.44
2022-10-29T20:42:20.154Z,97886.44
2022-10-29T20:45:06.818Z,97891.97
2022-10-29T20:47:52.422Z,97888.72
2022-10-29T20:50:37.819Z,97884.19
2022-10-29T20:53:23.769Z,97882.81
2022-10-29T20:56:11.607Z,97888.56
2022-10-29T20:59:02.358Z,97895.94
2022-10-29T21:01:47.888Z,97896.81
2022-10-29T21:04:33.315Z,97893.00
2022-10-29T21:07:19.002Z,97897.78
2022-10-29T21:10:04.425Z,97888.06
2022-10-29T21:12:49.642Z,97886.66
2022-10-29T21:15:36.506Z,97882.81
2022-10-29T21:18:22.065Z,97885.47
2022-10-29T21:21:09.125Z,97882.03
2022-10-29T21:23:55.044Z,97885.53
2022-10-29T21:26:40.374Z,97883.16
2022-10-29T21:29:26.045Z,97886.69
2022-10-29T21:32:12.997Z,97882.84
2022-10-29T21:35:02.378Z,97883.09
2022-10-29T21:37:47.905Z,97883.56
2022-10-29T21:40:33.276Z,97883.81
2022-10-29T21:43:21.993Z,97884.28
2022-10-29T21:46:07.552Z,97878.81
2022-10-29T21:48:55.821Z,97878.00
2022-10-29T21:51:42.203Z,97872.31
2022-10-29T21:54:28.505Z,97872.34
2022-10-29T21:57:14.063Z,97867.31
2022-10-29T21:59:59.668Z,97874.25
2022-10-29T22:02:45.231Z,97875.25
2022-10-29T22:05:30.897Z,97880.56
2022-10-29T22:08:16.117Z,97883.22
2022-10-29T22:11:02.156Z,97879.53
2022-10-29T22:13:47.783Z,97881.97
2022-10-29T22:16:33.531Z,97881.97
2022-10-29T22:19:18.584Z,97897.28
2022-10-29T22:22:03.879Z,97887.53
2022-10-29T22:24:49.479Z,97890.81
2022-10-29T22:27:34.620Z,97887.56
2022-10-29T22:30:20.118Z,97884.53
2022-10-29T22:33:05.510Z,97878.19
2022-10-29T22:35:50.948Z,97886.75
2022-10-29T22:38:36.868Z,97880.44
2022-10-29T22:41:23.598Z,97878.41
2022-10-29T22:44:09.100Z,97878.19
2022-10-29T22:46:54.395Z,97874.72
2022-10-29T22:49:39.788Z,97874.53
2022-10-29T22:52:25.509Z,97873.28
2022-10-29T22:55:11.207Z,97877.34
2022-10-29T22:57:56.782Z,97875.72
2022-10-29T23:00:42.271Z,97865.94
2022-10-29T23:03:27.575Z,97876.53
2022-10-29T23:06:16.107Z,97870.41
2022-10-29T23:09:04.286Z,97875.50
2022-10-29T23:11:49.882Z,97877.13
2022-10-29T23:14:35.257Z,97876.09
2022-10-29T23:17:20.712Z,97873.06
2022-10-29T23:20:06.830Z,97869.44
2022-10-29T23:22:52.483Z,97869.66
2022-10-29T23:25:41.829Z,97867.22
2022-10-29T23:28:28.752Z,97875.97
2022-10-29T23:31:16.708Z,97864.78
2022-10-29T23:34:02.153Z,97865.59
2022-10-29T23:36:47.788Z,97872.97
2022-10-29T23:39:33.328Z,97870.50
2022-10-29T23:42:18.674Z,97868.88
2022-10-29T23:45:07.733Z,97868.28
2022-10-29T23:47:53.915Z,97871.94
2022-10-29T23:50:39.510Z,97872.59
2022-10-29T23:53:25.831Z,97869.78
2022-10-29T23:56:11.459Z,97867.75
2022-10-29T23:58:56.902Z,97871.41
